Бухта Провидения

Карта отелей и гостиниц, располагающихся рядом с аэропортом Бухта Провидения :

Бухта Провидения Чукотский автономный округ 64° 22' 44.4" N, 173° 14' 33.4212" W
Код аэродрома ИКАО
UHMD
Код аэродрома RU
УХМД
Координаты
N64.37900° W173.24262°
Превышение над уровнем моря
22
Основная полоса
01/19
Курс магнитный
014,8/194,8
Длина основной ВПП
2000
Ширина основной ВПП
52
Покрытие основной ВПП
Нетвёрдое (гравий)
Освещение ВПП
Нет
Тип: 
Аэродром
Класс аэродрома: 
Международный
Принадлежность: 
ГА
Статус: 
Действующий
E-mail аэродрома: 
provaier@mail.ru
Страна: 
Россия
Регион: 
Чукотский автономный округ
Дополнительная информация: 
Международный аэропорт федерального значения, расположен рядом с п. Урелики на южном противоположном берегу от п. Провидения. Обеспечивает регулярное авиасообщение с Анадырем, а также чартерное сообщение с Номом (Аляска). Военный индекс: ЬХМД/XHMD. Горный. Оператор: Филиал ФКП «Аэропорты Чукотки». Покрытие ГВПП: гравий + песок. Нкр.(500)м. ДПРС: 960-BC/WS. Принимает ВС массой 61 т и менее.
Погода: 

Авиационная погода в Бухте Провидения

Погода METAR: 
UHMD 282200Z 20004MPS 2500 BR OVC003 06/05 Q1018 RMK QBB110 MT OBSC QFE763/1017
Время наблюдения
2022-06-28T22:00:00Z
Температура C
6.0
Точка росы
5.0
Направление ветра
200
Скорость ветра (узлы)
8
Метео видимость
1.55
Облачность
OVC
Нижняя граница облачности (футы)
300
Явления погоды
BR
Условия полета
LIFR
Аэропорт подробнее: 
OVC – сплошная облачность;
BR – дымка (видимость от 1 до 9 км);

Найти трансфер

С помощью этой формы Вы можете найти трансфер из аэропорта Бухта Провидения в город, аэропорт или вокзал:

Погода в аэропортах:

Авиационная погода в Игнатьево

Регион: 
Погода METAR: 
UHBB 282200Z 35002MPS 0150 0100W R36/M0200N FG VV002 18/18 Q1003 R36/090060 NOSIG RMK QBB060 QFE735/0980
Время наблюдения
2022-06-28T22:00:00Z
Температура C
18.0
Точка росы
18.0
Направление ветра
350
Скорость ветра (узлы)
4
Метео видимость
0.09
Облачность
OVX
Нижняя граница облачности (футы)
0
Явления погоды
FG
Условия полета
LIFR
Аэропорт подробнее: 
FG – туман (небо не видно, температура воздуха выше нуля или ноль);

Авиационная погода в Ханты-Мансийске

Регион: 
Погода METAR: 
USHH 282200Z 29001MPS 4400 -SHRA BR BKN003CB 10/10 Q0996 R24/290050 TEMPO 1000 SHRA BR OVC002CB
Время наблюдения
2022-06-28T22:00:00Z
Температура C
10.0
Точка росы
10.0
Направление ветра
290
Скорость ветра (узлы)
2
Метео видимость
2.73
Облачность
BKN
Нижняя граница облачности (футы)
300
Явления погоды
-SHRA BR
Условия полета
LIFR
Аэропорт подробнее: 
BKN – значительная (рассеянная, разорванная) облачность;
-SHRA - слабый ливневой дождь; BR – дымка (видимость от 1 до 9 км);

Авиационная погода в Закаталы

Регион: 
Погода METAR: 
UBBY 040100Z 08014KT 5000 -SHRA SCT040CB OVC045 15/14 Q1019 NOSIG RMK MT OBSC
Время наблюдения
2022-07-04T01:00:00Z
Температура C
15.0
Точка росы
14.0
Направление ветра
80
Скорость ветра (узлы)
14
Метео видимость
3.11
Облачность
SCT
OVC
Нижняя граница облачности (футы)
4000
4500
Явления погоды
-SHRA
Условия полета
MVFR
SCT – разбросанная отдельная облачность; OVC – сплошная облачность;
-SHRA - слабый ливневой дождь;

Авиационная погода в Магнитогорске

Погода METAR: 
USCM 282200Z 31003MPS 5000 BR SCT040CB 04/02 Q1009 R36/090060 TEMPO 1500 BR RMK QFE719
Время наблюдения
2022-06-28T22:00:00Z
Температура C
4.0
Точка росы
2.0
Направление ветра
310
Скорость ветра (узлы)
6
Метео видимость
3.11
Облачность
SCT
Нижняя граница облачности (футы)
4000
Явления погоды
BR
Условия полета
MVFR
Аэропорт подробнее: 
SCT – разбросанная отдельная облачность;
BR – дымка (видимость от 1 до 9 км);